sensor_id;sensor_type;location;lat;lon;timestamp;pressure;altitude;pressure_sealevel;temperature;humidity
16190;BME280;41754;51.498;7.540;2023-03-22T00:01:14;99836.56;;;10.97;59.58
16190;BME280;41754;51.498;7.540;2023-03-22T00:03:42;99833.34;;;10.77;60.19
16190;BME280;41754;51.498;7.540;2023-03-22T00:06:11;99840.78;;;10.86;60.30
16190;BME280;41754;51.498;7.540;2023-03-22T00:08:39;99838.50;;;11.05;60.18
16190;BME280;41754;51.498;7.540;2023-03-22T00:11:07;99835.09;;;11.17;59.59
16190;BME280;41754;51.498;7.540;2023-03-22T00:13:35;99831.00;;;11.31;59.08
16190;BME280;41754;51.498;7.540;2023-03-22T00:16:06;99832.97;;;11.22;59.20
16190;BME280;41754;51.498;7.540;2023-03-22T00:18:34;99837.81;;;11.43;58.67
16190;BME280;41754;51.498;7.540;2023-03-22T00:21:02;99837.16;;;11.46;58.56
16190;BME280;41754;51.498;7.540;2023-03-22T00:23:30;99832.97;;;11.39;58.64
16190;BME280;41754;51.498;7.540;2023-03-22T00:25:58;99828.72;;;11.42;58.78
16190;BME280;41754;51.498;7.540;2023-03-22T00:28:26;99835.06;;;11.51;58.40
16190;BME280;41754;51.498;7.540;2023-03-22T00:30:56;99830.69;;;11.24;59.24
16190;BME280;41754;51.498;7.540;2023-03-22T00:33:27;99828.41;;;11.44;59.15
16190;BME280;41754;51.498;7.540;2023-03-22T00:35:57;99823.06;;;11.47;58.15
16190;BME280;41754;51.498;7.540;2023-03-22T00:38:26;99821.78;;;11.53;58.47
16190;BME280;41754;51.498;7.540;2023-03-22T00:41:10;99812.50;;;11.58;58.08
16190;BME280;41754;51.498;7.540;2023-03-22T00:43:38;99823.56;;;11.23;59.18
16190;BME280;41754;51.498;7.540;2023-03-22T00:46:07;99815.34;;;11.15;59.11
16190;BME280;41754;51.498;7.540;2023-03-22T00:48:36;99812.81;;;11.65;58.32
16190;BME280;41754;51.498;7.540;2023-03-22T00:51:05;99817.69;;;11.59;58.26
16190;BME280;41754;51.498;7.540;2023-03-22T00:53:35;99818.38;;;11.48;58.53
16190;BME280;41754;51.498;7.540;2023-03-22T00:56:06;99810.88;;;11.65;58.47
16190;BME280;41754;51.498;7.540;2023-03-22T00:58:43;99803.13;;;11.42;58.28
16190;BME280;41754;51.498;7.540;2023-03-22T01:01:11;99801.47;;;11.58;57.96
16190;BME280;41754;51.498;7.540;2023-03-22T01:03:42;99798.78;;;11.23;58.73
16190;BME280;41754;51.498;7.540;2023-03-22T01:06:13;99784.38;;;11.26;58.77
16190;BME280;41754;51.498;7.540;2023-03-22T01:08:41;99788.03;;;11.56;58.78
16190;BME280;41754;51.498;7.540;2023-03-22T01:11:09;99779.31;;;11.46;58.85
16190;BME280;41754;51.498;7.540;2023-03-22T01:13:37;99774.13;;;11.44;58.37
16190;BME280;41754;51.498;7.540;2023-03-22T01:16:08;99768.19;;;11.16;58.83
16190;BME280;41754;51.498;7.540;2023-03-22T01:18:36;99766.94;;;10.88;59.76
16190;BME280;41754;51.498;7.540;2023-03-22T01:21:06;99766.38;;;11.29;59.96
16190;BME280;41754;51.498;7.540;2023-03-22T01:23:34;99768.34;;;11.11;59.85
16190;BME280;41754;51.498;7.540;2023-03-22T01:26:03;99765.94;;;11.01;60.77
16190;BME280;41754;51.498;7.540;2023-03-22T01:28:31;99758.38;;;10.89;61.08
16190;BME280;41754;51.498;7.540;2023-03-22T01:31:00;99764.03;;;10.84;61.55
16190;BME280;41754;51.498;7.540;2023-03-22T01:33:28;99765.94;;;11.09;60.67
16190;BME280;41754;51.498;7.540;2023-03-22T01:35:56;99759.16;;;11.07;60.61
16190;BME280;41754;51.498;7.540;2023-03-22T01:38:26;99756.91;;;10.92;61.83
16190;BME280;41754;51.498;7.540;2023-03-22T01:40:57;99759.47;;;10.97;61.28
16190;BME280;41754;51.498;7.540;2023-03-22T01:43:28;99761.91;;;10.98;61.70
16190;BME280;41754;51.498;7.540;2023-03-22T01:45:57;99761.25;;;11.01;61.99
16190;BME280;41754;51.498;7.540;2023-03-22T01:48:30;99751.81;;;11.20;60.96
16190;BME280;41754;51.498;7.540;2023-03-22T01:51:02;99757.53;;;10.97;61.75
16190;BME280;41754;51.498;7.540;2023-03-22T01:53:42;99744.59;;;10.98;62.12
16190;BME280;41754;51.498;7.540;2023-03-22T01:56:11;99743.09;;;11.09;62.21
16190;BME280;41754;51.498;7.540;2023-03-22T01:58:40;99754.91;;;11.18;61.85
16190;BME280;41754;51.498;7.540;2023-03-22T02:01:10;99748.47;;;11.05;61.78
16190;BME280;41754;51.498;7.540;2023-03-22T02:03:47;99734.50;;;11.19;61.80
16190;BME280;41754;51.498;7.540;2023-03-22T02:06:17;99745.72;;;11.05;62.20
16190;BME280;41754;51.498;7.540;2023-03-22T02:08:51;99733.66;;;11.27;61.51
16190;BME280;41754;51.498;7.540;2023-03-22T02:11:28;99728.91;;;10.72;62.90
16190;BME280;41754;51.498;7.540;2023-03-22T02:14:11;99718.72;;;10.81;63.18
16190;BME280;41754;51.498;7.540;2023-03-22T02:17:18;99718.25;;;10.71;62.92
16190;BME280;41754;51.498;7.540;2023-03-22T02:20:33;99713.16;;;10.99;62.35
16190;BME280;41754;51.498;7.540;2023-03-22T02:23:37;99711.41;;;10.94;62.75
16190;BME280;41754;51.498;7.540;2023-03-22T02:26:26;99718.09;;;10.67;63.26
16190;BME280;41754;51.498;7.540;2023-03-22T02:29:07;99707.66;;;10.99;62.17
16190;BME280;41754;51.498;7.540;2023-03-22T02:32:01;99710.72;;;11.06;62.64
16190;BME280;41754;51.498;7.540;2023-03-22T02:37:47;99698.78;;;10.93;62.65
16190;BME280;41754;51.498;7.540;2023-03-22T02:40:25;99711.53;;;10.98;63.18
16190;BME280;41754;51.498;7.540;2023-03-22T02:42:58;99698.13;;;10.88;62.93
16190;BME280;41754;51.498;7.540;2023-03-22T02:45:32;99697.97;;;10.93;62.90
16190;BME280;41754;51.498;7.540;2023-03-22T02:48:05;99703.81;;;10.82;62.92
16190;BME280;41754;51.498;7.540;2023-03-22T02:50:38;99693.47;;;10.71;63.02
16190;BME280;41754;51.498;7.540;2023-03-22T02:53:14;99688.72;;;10.97;63.17
16190;BME280;41754;51.498;7.540;2023-03-22T02:55:50;99684.53;;;10.91;62.89
16190;BME280;41754;51.498;7.540;2023-03-22T02:58:22;99676.09;;;10.96;63.04
16190;BME280;41754;51.498;7.540;2023-03-22T03:00:54;99669.31;;;10.94;62.71
16190;BME280;41754;51.498;7.540;2023-03-22T03:03:26;99676.75;;;10.93;62.59
16190;BME280;41754;51.498;7.540;2023-03-22T03:05:59;99668.97;;;11.04;62.83
16190;BME280;41754;51.498;7.540;2023-03-22T03:08:29;99675.16;;;10.92;63.00
16190;BME280;41754;51.498;7.540;2023-03-22T03:11:01;99672.09;;;10.76;63.49
16190;BME280;41754;51.498;7.540;2023-03-22T03:13:29;99666.59;;;10.76;63.26
16190;BME280;41754;51.498;7.540;2023-03-22T03:15:58;99672.84;;;11.03;62.65
16190;BME280;41754;51.498;7.540;2023-03-22T03:18:37;99665.19;;;11.17;62.27
16190;BME280;41754;51.498;7.540;2023-03-22T03:21:22;99662.34;;;10.96;63.15
16190;BME280;41754;51.498;7.540;2023-03-22T03:23:55;99668.16;;;10.95;62.59
16190;BME280;41754;51.498;7.540;2023-03-22T03:26:32;99658.50;;;10.71;63.98
16190;BME280;41754;51.498;7.540;2023-03-22T03:29:04;99662.06;;;10.63;63.89
16190;BME280;41754;51.498;7.540;2023-03-22T03:31:42;99653.81;;;10.63;63.97
16190;BME280;41754;51.498;7.540;2023-03-22T03:34:17;99652.09;;;10.41;65.06
16190;BME280;41754;51.498;7.540;2023-03-22T03:36:52;99654.38;;;10.31;65.71
16190;BME280;41754;51.498;7.540;2023-03-22T03:39:23;99652.88;;;10.50;64.49
16190;BME280;41754;51.498;7.540;2023-03-22T03:41:55;99649.50;;;10.45;64.93
16190;BME280;41754;51.498;7.540;2023-03-22T03:44:25;99646.94;;;10.31;65.52
16190;BME280;41754;51.498;7.540;2023-03-22T03:46:54;99651.28;;;10.32;65.61
16190;BME280;41754;51.498;7.540;2023-03-22T03:49:23;99649.19;;;10.20;66.13
16190;BME280;41754;51.498;7.540;2023-03-22T03:51:54;99646.09;;;10.05;66.63
16190;BME280;41754;51.498;7.540;2023-03-22T03:54:22;99645.28;;;10.13;66.28
16190;BME280;41754;51.498;7.540;2023-03-22T03:56:51;99647.72;;;10.23;66.14
16190;BME280;41754;51.498;7.540;2023-03-22T03:59:20;99645.91;;;10.01;66.74
16190;BME280;41754;51.498;7.540;2023-03-22T04:01:49;99651.59;;;9.96;67.06
16190;BME280;41754;51.498;7.540;2023-03-22T04:04:30;99650.75;;;9.87;67.84
16190;BME280;41754;51.498;7.540;2023-03-22T04:07:03;99649.00;;;9.91;67.90
16190;BME280;41754;51.498;7.540;2023-03-22T04:09:35;99648.34;;;9.94;67.94
16190;BME280;41754;51.498;7.540;2023-03-22T04:12:13;99653.34;;;9.75;68.14
16190;BME280;41754;51.498;7.540;2023-03-22T04:14:51;99655.47;;;9.78;68.56
16190;BME280;41754;51.498;7.540;2023-03-22T04:17:24;99655.56;;;9.55;68.89
16190;BME280;41754;51.498;7.540;2023-03-22T04:19:54;99644.59;;;9.73;69.22
16190;BME280;41754;51.498;7.540;2023-03-22T04:22:23;99648.78;;;9.61;69.58
16190;BME280;41754;51.498;7.540;2023-03-22T04:24:51;99642.13;;;9.45;70.55
16190;BME280;41754;51.498;7.540;2023-03-22T04:27:21;99646.50;;;9.46;71.03
16190;BME280;41754;51.498;7.540;2023-03-22T04:29:57;99645.06;;;9.57;70.33
16190;BME280;41754;51.498;7.540;2023-03-22T04:32:45;99633.41;;;9.43;71.30
16190;BME280;41754;51.498;7.540;2023-03-22T04:35:16;99646.94;;;9.40;71.95
16190;BME280;41754;51.498;7.540;2023-03-22T04:37:44;99633.91;;;9.45;71.43
16190;BME280;41754;51.498;7.540;2023-03-22T04:40:15;99632.94;;;9.41;71.60
16190;BME280;41754;51.498;7.540;2023-03-22T04:42:55;99634.22;;;9.52;71.34
16190;BME280;41754;51.498;7.540;2023-03-22T04:45:56;99631.63;;;9.47;71.31
16190;BME280;41754;51.498;7.540;2023-03-22T04:48:34;99638.81;;;9.17;72.85
16190;BME280;41754;51.498;7.540;2023-03-22T04:51:03;99635.88;;;9.53;70.78
16190;BME280;41754;51.498;7.540;2023-03-22T04:53:37;99637.31;;;9.59;70.43
16190;BME280;41754;51.498;7.540;2023-03-22T04:56:08;99636.66;;;9.54;70.92
16190;BME280;41754;51.498;7.540;2023-03-22T04:58:38;99632.50;;;9.65;70.52
16190;BME280;41754;51.498;7.540;2023-03-22T05:01:10;99632.94;;;9.41;70.79
16190;BME280;41754;51.498;7.540;2023-03-22T05:03:41;99635.50;;;9.46;70.98
16190;BME280;41754;51.498;7.540;2023-03-22T05:06:11;99633.75;;;9.59;70.41
16190;BME280;41754;51.498;7.540;2023-03-22T05:08:58;99621.34;;;9.70;69.95
16190;BME280;41754;51.498;7.540;2023-03-22T05:11:26;99630.84;;;9.64;69.60
16190;BME280;41754;51.498;7.540;2023-03-22T05:14:07;99613.25;;;9.74;69.61
16190;BME280;41754;51.498;7.540;2023-03-22T05:16:37;99621.97;;;9.58;69.94
16190;BME280;41754;51.498;7.540;2023-03-22T05:19:07;99630.03;;;9.63;69.91
16190;BME280;41754;51.498;7.540;2023-03-22T05:21:42;99621.50;;;9.65;69.14
16190;BME280;41754;51.498;7.540;2023-03-22T05:24:10;99622.59;;;9.64;69.61
16190;BME280;41754;51.498;7.540;2023-03-22T05:26:40;99633.16;;;9.88;68.70
16190;BME280;41754;51.498;7.540;2023-03-22T05:29:10;99623.31;;;10.04;67.83
16190;BME280;41754;51.498;7.540;2023-03-22T05:32:09;99632.00;;;9.89;68.43
16190;BME280;41754;51.498;7.540;2023-03-22T05:34:37;99632.66;;;9.86;68.51
16190;BME280;41754;51.498;7.540;2023-03-22T05:37:34;99631.03;;;9.76;68.67
16190;BME280;41754;51.498;7.540;2023-03-22T05:40:02;99630.22;;;9.76;69.38
16190;BME280;41754;51.498;7.540;2023-03-22T05:42:37;99613.75;;;9.93;68.22
16190;BME280;41754;51.498;7.540;2023-03-22T05:45:14;99611.00;;;9.84;68.82
16190;BME280;41754;51.498;7.540;2023-03-22T05:47:47;99633.97;;;9.80;69.08
16190;BME280;41754;51.498;7.540;2023-03-22T05:50:21;99628.94;;;9.99;67.99
16190;BME280;41754;51.498;7.540;2023-03-22T05:52:49;99621.19;;;10.10;67.67
16190;BME280;41754;51.498;7.540;2023-03-22T05:55:26;99615.34;;;10.46;66.78
16190;BME280;41754;51.498;7.540;2023-03-22T05:57:57;99621.00;;;10.58;65.89
16190;BME280;41754;51.498;7.540;2023-03-22T06:00:28;99614.56;;;10.37;65.98
16190;BME280;41754;51.498;7.540;2023-03-22T06:03:34;99617.16;;;10.33;66.05
16190;BME280;41754;51.498;7.540;2023-03-22T06:06:10;99615.47;;;10.67;65.90
16190;BME280;41754;51.498;7.540;2023-03-22T06:08:49;99612.75;;;10.58;66.08
16190;BME280;41754;51.498;7.540;2023-03-22T06:11:17;99606.53;;;10.78;65.01
16190;BME280;41754;51.498;7.540;2023-03-22T06:13:45;99612.69;;;10.75;64.28
16190;BME280;41754;51.498;7.540;2023-03-22T06:16:14;99610.13;;;10.62;65.14
16190;BME280;41754;51.498;7.540;2023-03-22T06:18:43;99613.94;;;10.87;64.88
16190;BME280;41754;51.498;7.540;2023-03-22T06:21:11;99607.19;;;10.75;64.42
16190;BME280;41754;51.498;7.540;2023-03-22T06:23:40;99619.78;;;10.85;64.36
16190;BME280;41754;51.498;7.540;2023-03-22T06:26:10;99602.47;;;10.85;64.21
16190;BME280;41754;51.498;7.540;2023-03-22T06:28:39;99599.94;;;11.09;63.60
16190;BME280;41754;51.498;7.540;2023-03-22T06:31:09;99603.25;;;11.23;63.40
16190;BME280;41754;51.498;7.540;2023-03-22T06:34:01;99593.66;;;11.00;63.20
16190;BME280;41754;51.498;7.540;2023-03-22T06:36:39;99602.81;;;11.13;62.85
16190;BME280;41754;51.498;7.540;2023-03-22T06:39:15;99601.66;;;11.22;62.99
16190;BME280;41754;51.498;7.540;2023-03-22T06:41:44;99603.25;;;11.23;63.15
16190;BME280;41754;51.498;7.540;2023-03-22T06:44:12;99603.72;;;10.96;63.83
16190;BME280;41754;51.498;7.540;2023-03-22T06:47:03;99592.97;;;11.41;61.83
16190;BME280;41754;51.498;7.540;2023-03-22T06:49:49;99592.16;;;11.40;62.38
16190;BME280;41754;51.498;7.540;2023-03-22T06:52:22;99601.34;;;11.53;62.35
16190;BME280;41754;51.498;7.540;2023-03-22T06:54:50;99591.31;;;11.19;62.44
16190;BME280;41754;51.498;7.540;2023-03-22T06:57:18;99588.44;;;11.45;62.33
16190;BME280;41754;51.498;7.540;2023-03-22T06:59:46;99595.66;;;11.20;61.99
16190;BME280;41754;51.498;7.540;2023-03-22T07:02:14;99589.41;;;11.70;61.01
16190;BME280;41754;51.498;7.540;2023-03-22T07:05:04;99597.81;;;11.15;62.67
16190;BME280;41754;51.498;7.540;2023-03-22T07:07:32;99592.75;;;11.55;61.93
16190;BME280;41754;51.498;7.540;2023-03-22T07:10:01;99592.53;;;11.30;61.62
16190;BME280;41754;51.498;7.540;2023-03-22T07:12:30;99589.41;;;11.70;60.30
16190;BME280;41754;51.498;7.540;2023-03-22T07:15:03;99590.25;;;11.62;60.89
16190;BME280;41754;51.498;7.540;2023-03-22T07:17:42;99589.94;;;11.84;60.68
16190;BME280;41754;51.498;7.540;2023-03-22T07:20:11;99583.19;;;11.73;60.45
16190;BME280;41754;51.498;7.540;2023-03-22T07:22:40;99580.09;;;11.95;59.76
16190;BME280;41754;51.498;7.540;2023-03-22T07:25:08;99578.91;;;11.63;60.31
16190;BME280;41754;51.498;7.540;2023-03-22T07:27:36;99577.28;;;11.83;59.41
16190;BME280;41754;51.498;7.540;2023-03-22T07:30:05;99573.84;;;11.86;59.72
16190;BME280;41754;51.498;7.540;2023-03-22T07:32:39;99566.59;;;12.03;58.55
16190;BME280;41754;51.498;7.540;2023-03-22T07:35:13;99579.72;;;11.64;59.25
16190;BME280;41754;51.498;7.540;2023-03-22T07:37:42;99567.88;;;11.84;58.41
16190;BME280;41754;51.498;7.540;2023-03-22T07:40:19;99571.63;;;11.59;59.23
16190;BME280;41754;51.498;7.540;2023-03-22T07:42:49;99569.47;;;11.85;58.48
16190;BME280;41754;51.498;7.540;2023-03-22T07:45:34;99564.50;;;11.99;58.03
16190;BME280;41754;51.498;7.540;2023-03-22T07:48:38;99578.75;;;11.60;58.62
16190;BME280;41754;51.498;7.540;2023-03-22T07:51:46;99557.72;;;12.30;57.05
16190;BME280;41754;51.498;7.540;2023-03-22T07:54:14;99555.69;;;12.39;56.75
16190;BME280;41754;51.498;7.540;2023-03-22T07:56:58;99567.84;;;12.26;56.78
16190;BME280;41754;51.498;7.540;2023-03-22T07:59:27;99557.97;;;12.37;56.69
16190;BME280;41754;51.498;7.540;2023-03-22T08:01:55;99574.88;;;11.82;57.12
16190;BME280;41754;51.498;7.540;2023-03-22T08:04:30;99561.28;;;12.31;56.68
16190;BME280;41754;51.498;7.540;2023-03-22T08:07:18;99546.94;;;12.49;56.37
16190;BME280;41754;51.498;7.540;2023-03-22T08:09:46;99548.31;;;13.25;54.11
16190;BME280;41754;51.498;7.540;2023-03-22T08:12:15;99542.59;;;13.70;52.92
16190;BME280;41754;51.498;7.540;2023-03-22T08:14:45;99549.56;;;13.92;51.43
16190;BME280;41754;51.498;7.540;2023-03-22T08:17:20;99550.31;;;13.65;51.82
16190;BME280;41754;51.498;7.540;2023-03-22T08:19:49;99573.63;;;13.39;52.71
16190;BME280;41754;51.498;7.540;2023-03-22T08:22:23;99548.66;;;12.99;52.83
16190;BME280;41754;51.498;7.540;2023-03-22T08:25:14;99538.22;;;13.69;51.97
16190;BME280;41754;51.498;7.540;2023-03-22T08:27:43;99533.13;;;13.07;53.39
16190;BME280;41754;51.498;7.540;2023-03-22T08:30:12;99545.69;;;12.92;52.84
16190;BME280;41754;51.498;7.540;2023-03-22T08:32:42;99552.81;;;12.93;53.07
16190;BME280;41754;51.498;7.540;2023-03-22T08:35:10;99550.94;;;13.09;52.34
16190;BME280;41754;51.498;7.540;2023-03-22T08:37:40;99556.47;;;13.22;52.10
16190;BME280;41754;51.498;7.540;2023-03-22T08:40:10;99552.09;;;13.21;51.78
16190;BME280;41754;51.498;7.540;2023-03-22T08:42:45;99548.66;;;12.87;52.74
16190;BME280;41754;51.498;7.540;2023-03-22T08:45:13;99565.91;;;13.33;51.66
16190;BME280;41754;51.498;7.540;2023-03-22T08:47:48;99553.47;;;13.39;51.70
16190;BME280;41754;51.498;7.540;2023-03-22T08:50:20;99554.38;;;13.43;51.74
16190;BME280;41754;51.498;7.540;2023-03-22T08:52:57;99547.91;;;13.63;51.08
16190;BME280;41754;51.498;7.540;2023-03-22T08:55:31;99555.81;;;13.25;52.34
16190;BME280;41754;51.498;7.540;2023-03-22T08:58:10;99547.72;;;13.32;52.08
16190;BME280;41754;51.498;7.540;2023-03-22T09:00:53;99543.41;;;13.59;50.36
16190;BME280;41754;51.498;7.540;2023-03-22T09:03:44;99540.59;;;14.11;50.48
16190;BME280;41754;51.498;7.540;2023-03-22T09:06:12;99554.25;;;13.64;50.23
16190;BME280;41754;51.498;7.540;2023-03-22T09:08:43;99559.69;;;14.00;49.31
16190;BME280;41754;51.498;7.540;2023-03-22T09:11:13;99555.00;;;13.89;48.70
16190;BME280;41754;51.498;7.540;2023-03-22T09:13:45;99554.09;;;13.60;48.48
16190;BME280;41754;51.498;7.540;2023-03-22T09:16:13;99559.13;;;13.95;48.13
16190;BME280;41754;51.498;7.540;2023-03-22T09:18:43;99559.59;;;13.85;46.99
16190;BME280;41754;51.498;7.540;2023-03-22T09:21:15;99571.75;;;13.68;46.63
16190;BME280;41754;51.498;7.540;2023-03-22T09:24:06;99543.94;;;13.89;46.61
16190;BME280;41754;51.498;7.540;2023-03-22T09:26:42;99539.84;;;14.26;46.40
16190;BME280;41754;51.498;7.540;2023-03-22T09:29:10;99529.22;;;14.28;46.28
16190;BME280;41754;51.498;7.540;2023-03-22T09:31:38;99548.56;;;14.13;45.74
16190;BME280;41754;51.498;7.540;2023-03-22T09:34:15;99537.75;;;14.51;44.45
16190;BME280;41754;51.498;7.540;2023-03-22T09:36:43;99529.03;;;14.21;45.37
16190;BME280;41754;51.498;7.540;2023-03-22T09:39:14;99522.88;;;14.87;44.97
16190;BME280;41754;51.498;7.540;2023-03-22T09:41:45;99540.31;;;14.44;45.82
16190;BME280;41754;51.498;7.540;2023-03-22T09:44:17;99539.94;;;14.46;45.77
16190;BME280;41754;51.498;7.540;2023-03-22T09:46:53;99540.75;;;14.30;46.01
16190;BME280;41754;51.498;7.540;2023-03-22T09:49:24;99521.22;;;14.55;45.90
16190;BME280;41754;51.498;7.540;2023-03-22T09:51:54;99533.38;;;14.98;45.10
16190;BME280;41754;51.498;7.540;2023-03-22T09:54:31;99515.16;;;14.97;43.90
16190;BME280;41754;51.498;7.540;2023-03-22T09:57:05;99514.75;;;14.79;44.87
16190;BME280;41754;51.498;7.540;2023-03-22T09:59:39;99508.91;;;14.68;44.83
16190;BME280;41754;51.498;7.540;2023-03-22T10:02:33;99507.13;;;14.92;43.91
16190;BME280;41754;51.498;7.540;2023-03-22T10:05:11;99496.19;;;15.14;43.43
16190;BME280;41754;51.498;7.540;2023-03-22T10:07:59;99496.84;;;14.92;43.13
16190;BME280;41754;51.498;7.540;2023-03-22T10:10:32;99487.75;;;14.76;43.96
16190;BME280;41754;51.498;7.540;2023-03-22T10:13:04;99514.00;;;14.98;42.42
16190;BME280;41754;51.498;7.540;2023-03-22T10:15:35;99498.03;;;15.26;41.85
16190;BME280;41754;51.498;7.540;2023-03-22T10:18:07;99505.13;;;15.43;41.70
16190;BME280;41754;51.498;7.540;2023-03-22T10:20:43;99506.47;;;15.49;41.15
16190;BME280;41754;51.498;7.540;2023-03-22T10:23:16;99510.63;;;15.39;41.85
16190;BME280;41754;51.498;7.540;2023-03-22T10:25:49;99510.19;;;15.22;41.04
16190;BME280;41754;51.498;7.540;2023-03-22T10:28:20;99500.25;;;15.56;40.57
16190;BME280;41754;51.498;7.540;2023-03-22T10:30:52;99502.25;;;16.13;40.16
16190;BME280;41754;51.498;7.540;2023-03-22T10:33:27;99501.19;;;15.44;41.55
16190;BME280;41754;51.498;7.540;2023-03-22T10:35:58;99506.72;;;15.79;41.72
16190;BME280;41754;51.498;7.540;2023-03-22T10:38:28;99518.03;;;14.84;42.91
16190;BME280;41754;51.498;7.540;2023-03-22T10:40:58;99517.59;;;15.68;42.25
16190;BME280;41754;51.498;7.540;2023-03-22T10:43:30;99518.03;;;15.90;40.67
16190;BME280;41754;51.498;7.540;2023-03-22T10:46:02;99512.28;;;15.79;41.11
16190;BME280;41754;51.498;7.540;2023-03-22T10:48:32;99531.81;;;16.25;41.18
16190;BME280;41754;51.498;7.540;2023-03-22T10:51:02;99531.84;;;16.05;41.09
16190;BME280;41754;51.498;7.540;2023-03-22T10:53:36;99523.34;;;16.18;40.33
16190;BME280;41754;51.498;7.540;2023-03-22T10:56:11;99520.84;;;15.55;41.34
16190;BME280;41754;51.498;7.540;2023-03-22T10:58:39;99549.56;;;15.46;42.36
16190;BME280;41754;51.498;7.540;2023-03-22T11:01:08;99524.19;;;15.80;41.63
16190;BME280;41754;51.498;7.540;2023-03-22T11:03:38;99528.69;;;15.33;42.20
16190;BME280;41754;51.498;7.540;2023-03-22T11:06:08;99522.31;;;14.98;43.05
16190;BME280;41754;51.498;7.540;2023-03-22T11:08:40;99524.09;;;15.76;41.40
16190;BME280;41754;51.498;7.540;2023-03-22T11:11:16;99537.19;;;15.60;41.00
16190;BME280;41754;51.498;7.540;2023-03-22T11:13:50;99555.34;;;15.73;40.52
16190;BME280;41754;51.498;7.540;2023-03-22T11:16:19;99539.72;;;16.03;40.17
16190;BME280;41754;51.498;7.540;2023-03-22T11:18:48;99534.75;;;15.93;40.06
16190;BME280;41754;51.498;7.540;2023-03-22T11:21:16;99523.00;;;16.42;39.36
16190;BME280;41754;51.498;7.540;2023-03-22T11:23:53;99531.91;;;16.51;38.54
16190;BME280;41754;51.498;7.540;2023-03-22T11:26:29;99523.94;;;17.45;37.69
16190;BME280;41754;51.498;7.540;2023-03-22T11:29:10;99522.91;;;17.87;36.41
16190;BME280;41754;51.498;7.540;2023-03-22T11:31:51;99518.53;;;16.57;37.92
16190;BME280;41754;51.498;7.540;2023-03-22T11:34:25;99516.16;;;17.05;37.70
16190;BME280;41754;51.498;7.540;2023-03-22T11:36:54;99511.13;;;17.40;37.79
16190;BME280;41754;51.498;7.540;2023-03-22T11:39:24;99505.63;;;17.44;37.32
16190;BME280;41754;51.498;7.540;2023-03-22T11:41:56;99508.88;;;17.79;36.23
16190;BME280;41754;51.498;7.540;2023-03-22T11:44:31;99505.97;;;17.12;36.90
16190;BME280;41754;51.498;7.540;2023-03-22T11:47:02;99499.75;;;17.22;36.77
16190;BME280;41754;51.498;7.540;2023-03-22T11:49:38;99500.41;;;16.63;36.91
16190;BME280;41754;51.498;7.540;2023-03-22T11:52:13;99501.22;;;16.44;38.22
16190;BME280;41754;51.498;7.540;2023-03-22T11:54:43;99529.97;;;15.55;38.53
16190;BME280;41754;51.498;7.540;2023-03-22T11:57:15;99501.41;;;15.35;39.69
16190;BME280;41754;51.498;7.540;2023-03-22T11:59:47;99502.91;;;15.48;38.83
16190;BME280;41754;51.498;7.540;2023-03-22T12:02:20;99505.22;;;15.11;39.81
16190;BME280;41754;51.498;7.540;2023-03-22T12:04:52;99506.19;;;15.19;39.88
16190;BME280;41754;51.498;7.540;2023-03-22T12:07:23;99498.97;;;15.49;39.43
16190;BME280;41754;51.498;7.540;2023-03-22T12:09:57;99497.25;;;15.80;38.56
16190;BME280;41754;51.498;7.540;2023-03-22T12:12:29;99507.38;;;15.02;41.52
16190;BME280;41754;51.498;7.540;2023-03-22T12:15:02;99499.50;;;15.04;41.01
16190;BME280;41754;51.498;7.540;2023-03-22T12:17:35;99492.66;;;14.82;42.31
16190;BME280;41754;51.498;7.540;2023-03-22T12:20:16;99502.47;;;14.96;41.99
16190;BME280;41754;51.498;7.540;2023-03-22T12:22:48;99489.56;;;15.19;40.85
16190;BME280;41754;51.498;7.540;2023-03-22T12:25:20;99493.72;;;14.94;41.07
16190;BME280;41754;51.498;7.540;2023-03-22T12:27:53;99481.78;;;15.44;40.72
16190;BME280;41754;51.498;7.540;2023-03-22T12:30:22;99497.34;;;15.13;40.20
16190;BME280;41754;51.498;7.540;2023-03-22T12:32:57;99483.63;;;15.01;41.25
16190;BME280;41754;51.498;7.540;2023-03-22T12:35:29;99486.88;;;14.87;41.37
16190;BME280;41754;51.498;7.540;2023-03-22T12:38:00;99465.88;;;14.71;40.57
16190;BME280;41754;51.498;7.540;2023-03-22T12:40:36;99456.63;;;14.35;42.43
16190;BME280;41754;51.498;7.540;2023-03-22T12:43:12;99476.97;;;14.11;43.01
16190;BME280;41754;51.498;7.540;2023-03-22T12:45:43;99468.88;;;14.18;42.26
16190;BME280;41754;51.498;7.540;2023-03-22T12:48:16;99469.22;;;13.61;43.04
16190;BME280;41754;51.498;7.540;2023-03-22T12:50:48;99476.72;;;14.16;41.89
16190;BME280;41754;51.498;7.540;2023-03-22T12:53:19;99469.94;;;14.29;41.94
16190;BME280;41754;51.498;7.540;2023-03-22T12:55:50;99471.31;;;14.51;40.18
16190;BME280;41754;51.498;7.540;2023-03-22T12:58:21;99475.84;;;14.12;41.23
16190;BME280;41754;51.498;7.540;2023-03-22T13:00:52;99484.25;;;14.63;40.15
16190;BME280;41754;51.498;7.540;2023-03-22T13:03:37;99492.97;;;14.33;42.15
16190;BME280;41754;51.498;7.540;2023-03-22T13:06:32;99484.44;;;14.39;40.92
16190;BME280;41754;51.498;7.540;2023-03-22T13:09:10;99484.34;;;14.67;40.97
16190;BME280;41754;51.498;7.540;2023-03-22T13:11:42;99489.53;;;14.52;41.27
16190;BME280;41754;51.498;7.540;2023-03-22T13:14:16;99484.41;;;15.02;40.57
16190;BME280;41754;51.498;7.540;2023-03-22T13:17:01;99503.97;;;14.46;41.39
16190;BME280;41754;51.498;7.540;2023-03-22T13:19:34;99521.28;;;14.27;40.44
16190;BME280;41754;51.498;7.540;2023-03-22T13:22:15;99516.78;;;13.79;41.29
16190;BME280;41754;51.498;7.540;2023-03-22T13:24:59;99512.13;;;14.11;41.47
16190;BME280;41754;51.498;7.540;2023-03-22T13:27:39;99512.41;;;13.78;42.92
16190;BME280;41754;51.498;7.540;2023-03-22T13:30:15;99526.13;;;13.62;43.01
16190;BME280;41754;51.498;7.540;2023-03-22T13:32:49;99517.03;;;13.49;42.94
16190;BME280;41754;51.498;7.540;2023-03-22T13:35:24;99508.72;;;13.21;43.92
16190;BME280;41754;51.498;7.540;2023-03-22T13:38:00;99509.31;;;13.14;43.99
16190;BME280;41754;51.498;7.540;2023-03-22T13:40:33;99497.03;;;13.52;43.86